JKH weather

Chios Island National Airport
Chios Island, Chios, Greece

Public forecast

Using degrees Celsius for public forecast. Weather courtesy of forecast.io.

Current aviation weather report (METAR) for Chios Island National Airport

Retrieved 2020/02/17 14:50 UTC (17 minutes ago):

LGHI 171450Z 02012KT CAVOK 14/03 Q1021

Aviation forecast (TAF) for Chios Island National Airport

Forecast is more than 12 hours old.

Retrieved 2012/09/21 03:06 UTC (7 years ago):

TAF TAF LGHI 210200Z 2103/2115 VRB05KT 9999 SCT020 PROB30 TEMPO 2103/2106 7000 RA SCT018 BKN030 BECMG 2103/2105 30018KT